sensor_id;sensor_type;location;lat;lon;timestamp;pressure;altitude;pressure_sealevel;temperature;humidity
80118;BME280;69424;48.770;-1.564;2024-01-15T00:00:30;101286.31;;;4.25;83.92
80118;BME280;69424;48.770;-1.564;2024-01-15T00:01:23;101284.14;;;4.23;83.72
80118;BME280;69424;48.770;-1.564;2024-01-15T00:01:57;101278.82;;;4.22;83.63
80118;BME280;69424;48.770;-1.564;2024-01-15T00:02:30;101280.10;;;4.23;83.78
80118;BME280;69424;48.770;-1.564;2024-01-15T00:03:03;101280.33;;;4.24;83.62
80118;BME280;69424;48.770;-1.564;2024-01-15T00:03:36;101278.23;;;4.24;83.76
80118;BME280;69424;48.770;-1.564;2024-01-15T00:04:09;101276.66;;;4.25;83.69
80118;BME280;69424;48.770;-1.564;2024-01-15T00:04:43;101282.11;;;4.25;83.66
80118;BME280;69424;48.770;-1.564;2024-01-15T00:05:16;101281.85;;;4.27;83.73
80118;BME280;69424;48.770;-1.564;2024-01-15T00:05:49;101280.48;;;4.28;83.86
80118;BME280;69424;48.770;-1.564;2024-01-15T00:06:22;101280.02;;;4.29;83.76
80118;BME280;69424;48.770;-1.564;2024-01-15T00:06:55;101277.41;;;4.30;83.84
80118;BME280;69424;48.770;-1.564;2024-01-15T00:07:28;101277.06;;;4.30;83.78
80118;BME280;69424;48.770;-1.564;2024-01-15T00:08:02;101276.91;;;4.30;83.86
80118;BME280;69424;48.770;-1.564;2024-01-15T00:08:35;101277.10;;;4.31;83.74
80118;BME280;69424;48.770;-1.564;2024-01-15T00:09:08;101276.09;;;4.31;83.85
80118;BME280;69424;48.770;-1.564;2024-01-15T00:09:42;101280.13;;;4.32;83.86
80118;BME280;69424;48.770;-1.564;2024-01-15T00:10:14;101279.93;;;4.32;83.72
80118;BME280;69424;48.770;-1.564;2024-01-15T00:10:48;101277.46;;;4.31;83.86
80118;BME280;69424;48.770;-1.564;2024-01-15T00:11:21;101277.09;;;4.30;83.88
80118;BME280;69424;48.770;-1.564;2024-01-15T00:11:54;101273.54;;;4.29;83.92
80118;BME280;69424;48.770;-1.564;2024-01-15T00:12:27;101275.95;;;4.28;83.90
80118;BME280;69424;48.770;-1.564;2024-01-15T00:13:01;101273.63;;;4.27;83.98
80118;BME280;69424;48.770;-1.564;2024-01-15T00:13:34;101272.56;;;4.27;84.13
80118;BME280;69424;48.770;-1.564;2024-01-15T00:14:07;101272.02;;;4.27;84.21
80118;BME280;69424;48.770;-1.564;2024-01-15T00:14:40;101271.63;;;4.26;84.24
80118;BME280;69424;48.770;-1.564;2024-01-15T00:15:13;101268.11;;;4.25;84.20
80118;BME280;69424;48.770;-1.564;2024-01-15T00:15:47;101271.63;;;4.26;84.12
80118;BME280;69424;48.770;-1.564;2024-01-15T00:16:20;101272.01;;;4.26;84.27
80118;BME280;69424;48.770;-1.564;2024-01-15T00:16:53;101272.03;;;4.27;84.19
80118;BME280;69424;48.770;-1.564;2024-01-15T00:17:27;101271.58;;;4.28;84.15
80118;BME280;69424;48.770;-1.564;2024-01-15T00:18:01;101269.67;;;4.29;84.02
80118;BME280;69424;48.770;-1.564;2024-01-15T00:18:34;101269.02;;;4.30;84.01
80118;BME280;69424;48.770;-1.564;2024-01-15T00:19:08;101272.05;;;4.32;83.95
80118;BME280;69424;48.770;-1.564;2024-01-15T00:19:41;101268.25;;;4.33;83.81
80118;BME280;69424;48.770;-1.564;2024-01-15T00:20:14;101270.98;;;4.35;83.83
80118;BME280;69424;48.770;-1.564;2024-01-15T00:20:48;101267.89;;;4.36;83.64
80118;BME280;69424;48.770;-1.564;2024-01-15T00:21:21;101267.41;;;4.38;83.69
80118;BME280;69424;48.770;-1.564;2024-01-15T00:21:55;101269.42;;;4.39;83.69
80118;BME280;69424;48.770;-1.564;2024-01-15T00:22:28;101265.97;;;4.40;83.73
80118;BME280;69424;48.770;-1.564;2024-01-15T00:23:01;101267.04;;;4.41;83.73
80118;BME280;69424;48.770;-1.564;2024-01-15T00:23:34;101266.18;;;4.41;83.67
80118;BME280;69424;48.770;-1.564;2024-01-15T00:24:07;101263.69;;;4.40;83.47
80118;BME280;69424;48.770;-1.564;2024-01-15T00:24:40;101269.09;;;4.40;83.87
80118;BME280;69424;48.770;-1.564;2024-01-15T00:25:13;101267.52;;;4.40;83.81
80118;BME280;69424;48.770;-1.564;2024-01-15T00:25:46;101258.72;;;4.39;83.92
80118;BME280;69424;48.770;-1.564;2024-01-15T00:26:19;101266.77;;;4.38;83.86
80118;BME280;69424;48.770;-1.564;2024-01-15T00:26:52;101265.82;;;4.37;83.88
80118;BME280;69424;48.770;-1.564;2024-01-15T00:27:26;101264.16;;;4.35;83.86
80118;BME280;69424;48.770;-1.564;2024-01-15T00:27:59;101266.75;;;4.35;83.73
80118;BME280;69424;48.770;-1.564;2024-01-15T00:28:32;101265.13;;;4.33;83.86
80118;BME280;69424;48.770;-1.564;2024-01-15T00:29:09;101263.86;;;4.32;83.68
80118;BME280;69424;48.770;-1.564;2024-01-15T00:29:42;101263.29;;;4.31;83.82
80118;BME280;69424;48.770;-1.564;2024-01-15T00:30:15;101265.15;;;4.30;83.81
80118;BME280;69424;48.770;-1.564;2024-01-15T00:30:48;101261.95;;;4.28;83.75
80118;BME280;69424;48.770;-1.564;2024-01-15T00:31:22;101265.77;;;4.28;83.73
80118;BME280;69424;48.770;-1.564;2024-01-15T00:31:55;101262.27;;;4.28;83.82
80118;BME280;69424;48.770;-1.564;2024-01-15T00:32:28;101259.98;;;4.27;83.80
80118;BME280;69424;48.770;-1.564;2024-01-15T00:33:01;101261.73;;;4.27;83.77
80118;BME280;69424;48.770;-1.564;2024-01-15T00:33:34;101259.99;;;4.28;83.76
80118;BME280;69424;48.770;-1.564;2024-01-15T00:34:08;101258.95;;;4.28;83.76
80118;BME280;69424;48.770;-1.564;2024-01-15T00:34:41;101255.85;;;4.29;83.91
80118;BME280;69424;48.770;-1.564;2024-01-15T00:35:15;101257.44;;;4.29;83.87
80118;BME280;69424;48.770;-1.564;2024-01-15T00:35:48;101253.80;;;4.30;83.96
80118;BME280;69424;48.770;-1.564;2024-01-15T00:36:21;101254.36;;;4.31;83.65
80118;BME280;69424;48.770;-1.564;2024-01-15T00:36:54;101252.98;;;4.32;83.72
80118;BME280;69424;48.770;-1.564;2024-01-15T00:37:28;101257.52;;;4.31;83.72
80118;BME280;69424;48.770;-1.564;2024-01-15T00:38:01;101251.39;;;4.31;83.76
80118;BME280;69424;48.770;-1.564;2024-01-15T00:38:34;101254.72;;;4.32;83.61
80118;BME280;69424;48.770;-1.564;2024-01-15T00:39:07;101250.16;;;4.31;83.65
80118;BME280;69424;48.770;-1.564;2024-01-15T00:39:40;101250.67;;;4.31;83.56
80118;BME280;69424;48.770;-1.564;2024-01-15T00:40:13;101244.86;;;4.30;83.63
80118;BME280;69424;48.770;-1.564;2024-01-15T00:40:46;101244.64;;;4.29;83.81
80118;BME280;69424;48.770;-1.564;2024-01-15T00:41:19;101245.70;;;4.29;83.59
80118;BME280;69424;48.770;-1.564;2024-01-15T00:41:52;101246.35;;;4.28;83.74
80118;BME280;69424;48.770;-1.564;2024-01-15T00:42:26;101241.77;;;4.27;83.79
80118;BME280;69424;48.770;-1.564;2024-01-15T00:42:59;101246.98;;;4.27;83.85
80118;BME280;69424;48.770;-1.564;2024-01-15T00:43:32;101245.22;;;4.26;83.91
80118;BME280;69424;48.770;-1.564;2024-01-15T00:44:05;101247.98;;;4.25;83.90
80118;BME280;69424;48.770;-1.564;2024-01-15T00:44:39;101245.80;;;4.23;84.03
80118;BME280;69424;48.770;-1.564;2024-01-15T00:45:12;101251.14;;;4.22;83.83
80118;BME280;69424;48.770;-1.564;2024-01-15T00:45:46;101247.41;;;4.20;84.11
80118;BME280;69424;48.770;-1.564;2024-01-15T00:46:19;101249.30;;;4.19;84.12
80118;BME280;69424;48.770;-1.564;2024-01-15T00:46:52;101245.61;;;4.19;84.22
80118;BME280;69424;48.770;-1.564;2024-01-15T00:47:25;101246.27;;;4.18;84.19
80118;BME280;69424;48.770;-1.564;2024-01-15T00:47:58;101246.60;;;4.17;84.36
80118;BME280;69424;48.770;-1.564;2024-01-15T00:48:34;101243.63;;;4.17;84.17
80118;BME280;69424;48.770;-1.564;2024-01-15T00:49:07;101240.95;;;4.17;84.14
80118;BME280;69424;48.770;-1.564;2024-01-15T00:49:40;101239.02;;;4.16;84.05
80118;BME280;69424;48.770;-1.564;2024-01-15T00:50:14;101236.95;;;4.17;84.03
80118;BME280;69424;48.770;-1.564;2024-01-15T00:50:47;101234.91;;;4.18;84.04
80118;BME280;69424;48.770;-1.564;2024-01-15T00:51:20;101231.40;;;4.18;84.00
80118;BME280;69424;48.770;-1.564;2024-01-15T00:51:53;101224.80;;;4.19;84.27
80118;BME280;69424;48.770;-1.564;2024-01-15T00:52:26;101224.98;;;4.20;84.32
80118;BME280;69424;48.770;-1.564;2024-01-15T00:52:59;101225.21;;;4.21;84.17
80118;BME280;69424;48.770;-1.564;2024-01-15T00:53:33;101231.52;;;4.21;84.23
80118;BME280;69424;48.770;-1.564;2024-01-15T00:54:06;101228.23;;;4.21;84.19
80118;BME280;69424;48.770;-1.564;2024-01-15T00:54:40;101225.61;;;4.22;83.99
80118;BME280;69424;48.770;-1.564;2024-01-15T00:55:13;101225.29;;;4.22;83.92
80118;BME280;69424;48.770;-1.564;2024-01-15T00:55:46;101230.24;;;4.24;84.14
80118;BME280;69424;48.770;-1.564;2024-01-15T00:56:19;101229.39;;;4.24;83.98
80118;BME280;69424;48.770;-1.564;2024-01-15T00:56:52;101229.39;;;4.25;83.76
80118;BME280;69424;48.770;-1.564;2024-01-15T00:57:25;101232.13;;;4.23;83.89
80118;BME280;69424;48.770;-1.564;2024-01-15T00:57:58;101228.45;;;4.23;83.85
80118;BME280;69424;48.770;-1.564;2024-01-15T00:58:31;101226.17;;;4.23;83.99
80118;BME280;69424;48.770;-1.564;2024-01-15T00:59:05;101226.13;;;4.22;83.89
80118;BME280;69424;48.770;-1.564;2024-01-15T00:59:38;101226.98;;;4.21;83.93
80118;BME280;69424;48.770;-1.564;2024-01-15T01:00:11;101224.33;;;4.20;83.95
80118;BME280;69424;48.770;-1.564;2024-01-15T01:00:45;101222.53;;;4.19;83.81
80118;BME280;69424;48.770;-1.564;2024-01-15T01:01:18;101225.50;;;4.19;83.94
80118;BME280;69424;48.770;-1.564;2024-01-15T01:01:52;101225.64;;;4.19;83.86
80118;BME280;69424;48.770;-1.564;2024-01-15T01:02:26;101220.00;;;4.18;83.93
80118;BME280;69424;48.770;-1.564;2024-01-15T01:02:59;101223.50;;;4.18;83.92
80118;BME280;69424;48.770;-1.564;2024-01-15T01:03:32;101219.80;;;4.17;83.77
80118;BME280;69424;48.770;-1.564;2024-01-15T01:04:05;101226.98;;;4.17;83.80
80118;BME280;69424;48.770;-1.564;2024-01-15T01:04:40;101218.92;;;4.17;83.95
80118;BME280;69424;48.770;-1.564;2024-01-15T01:05:13;101217.02;;;4.17;83.95
80118;BME280;69424;48.770;-1.564;2024-01-15T01:05:48;101217.06;;;4.18;83.76
80118;BME280;69424;48.770;-1.564;2024-01-15T01:06:22;101217.83;;;4.19;83.81
80118;BME280;69424;48.770;-1.564;2024-01-15T01:06:55;101218.92;;;4.21;83.85
80118;BME280;69424;48.770;-1.564;2024-01-15T01:07:29;101215.46;;;4.22;83.88
80118;BME280;69424;48.770;-1.564;2024-01-15T01:08:02;101217.27;;;4.23;84.04
80118;BME280;69424;48.770;-1.564;2024-01-15T01:08:35;101218.20;;;4.25;84.00
80118;BME280;69424;48.770;-1.564;2024-01-15T01:09:08;101215.11;;;4.27;83.96
80118;BME280;69424;48.770;-1.564;2024-01-15T01:09:41;101216.71;;;4.27;84.03
80118;BME280;69424;48.770;-1.564;2024-01-15T01:10:15;101215.73;;;4.29;84.27
80118;BME280;69424;48.770;-1.564;2024-01-15T01:10:48;101215.98;;;4.30;84.21
80118;BME280;69424;48.770;-1.564;2024-01-15T01:11:21;101213.88;;;4.30;84.47
80118;BME280;69424;48.770;-1.564;2024-01-15T01:11:54;101216.89;;;4.31;84.45
80118;BME280;69424;48.770;-1.564;2024-01-15T01:12:27;101218.48;;;4.32;84.51
80118;BME280;69424;48.770;-1.564;2024-01-15T01:13:00;101220.23;;;4.32;84.54
80118;BME280;69424;48.770;-1.564;2024-01-15T01:13:33;101219.88;;;4.31;84.47
80118;BME280;69424;48.770;-1.564;2024-01-15T01:14:06;101217.75;;;4.31;84.25
80118;BME280;69424;48.770;-1.564;2024-01-15T01:14:40;101220.37;;;4.30;84.39
80118;BME280;69424;48.770;-1.564;2024-01-15T01:15:13;101223.52;;;4.30;84.38
80118;BME280;69424;48.770;-1.564;2024-01-15T01:15:46;101221.70;;;4.29;84.28
80118;BME280;69424;48.770;-1.564;2024-01-15T01:16:19;101220.04;;;4.27;84.09
80118;BME280;69424;48.770;-1.564;2024-01-15T01:16:52;101216.27;;;4.25;84.15
80118;BME280;69424;48.770;-1.564;2024-01-15T01:17:25;101218.70;;;4.24;84.25
80118;BME280;69424;48.770;-1.564;2024-01-15T01:17:58;101217.95;;;4.22;84.16
80118;BME280;69424;48.770;-1.564;2024-01-15T01:18:32;101219.29;;;4.22;84.21
80118;BME280;69424;48.770;-1.564;2024-01-15T01:19:06;101219.09;;;4.21;84.00
80118;BME280;69424;48.770;-1.564;2024-01-15T01:19:40;101213.61;;;4.20;83.96
80118;BME280;69424;48.770;-1.564;2024-01-15T01:20:14;101216.39;;;4.19;83.91
80118;BME280;69424;48.770;-1.564;2024-01-15T01:20:51;101215.68;;;4.19;83.81
80118;BME280;69424;48.770;-1.564;2024-01-15T01:21:24;101214.80;;;4.19;83.75
80118;BME280;69424;48.770;-1.564;2024-01-15T01:21:57;101216.05;;;4.19;83.88
80118;BME280;69424;48.770;-1.564;2024-01-15T01:22:30;101213.08;;;4.19;83.86
80118;BME280;69424;48.770;-1.564;2024-01-15T01:23:03;101212.95;;;4.20;83.87
80118;BME280;69424;48.770;-1.564;2024-01-15T01:23:36;101209.62;;;4.20;83.69
80118;BME280;69424;48.770;-1.564;2024-01-15T01:24:09;101211.50;;;4.19;83.82
80118;BME280;69424;48.770;-1.564;2024-01-15T01:24:42;101207.97;;;4.19;83.60
80118;BME280;69424;48.770;-1.564;2024-01-15T01:25:15;101208.65;;;4.18;83.53
80118;BME280;69424;48.770;-1.564;2024-01-15T01:25:49;101209.98;;;4.17;83.54
80118;BME280;69424;48.770;-1.564;2024-01-15T01:26:22;101206.41;;;4.15;83.58
80118;BME280;69424;48.770;-1.564;2024-01-15T01:26:55;101206.92;;;4.15;83.48
80118;BME280;69424;48.770;-1.564;2024-01-15T01:27:28;101204.45;;;4.14;83.52
80118;BME280;69424;48.770;-1.564;2024-01-15T01:28:01;101207.27;;;4.14;83.38
80118;BME280;69424;48.770;-1.564;2024-01-15T01:28:34;101207.60;;;4.14;83.38
80118;BME280;69424;48.770;-1.564;2024-01-15T01:29:07;101207.27;;;4.15;83.41
80118;BME280;69424;48.770;-1.564;2024-01-15T01:29:40;101206.17;;;4.14;83.45
80118;BME280;69424;48.770;-1.564;2024-01-15T01:30:13;101207.56;;;4.13;83.61
80118;BME280;69424;48.770;-1.564;2024-01-15T01:30:47;101205.61;;;4.13;83.28
80118;BME280;69424;48.770;-1.564;2024-01-15T01:31:21;101205.05;;;4.12;83.60
80118;BME280;69424;48.770;-1.564;2024-01-15T01:31:54;101205.36;;;4.11;83.50
80118;BME280;69424;48.770;-1.564;2024-01-15T01:32:29;101207.42;;;4.10;83.53
80118;BME280;69424;48.770;-1.564;2024-01-15T01:33:02;101204.23;;;4.09;83.51
80118;BME280;69424;48.770;-1.564;2024-01-15T01:33:37;101202.80;;;4.08;83.58
80118;BME280;69424;48.770;-1.564;2024-01-15T01:34:16;101200.10;;;4.07;83.40
80118;BME280;69424;48.770;-1.564;2024-01-15T01:34:49;101204.81;;;4.06;83.61
80118;BME280;69424;48.770;-1.564;2024-01-15T01:35:23;101199.17;;;4.05;83.75
80118;BME280;69424;48.770;-1.564;2024-01-15T01:35:56;101195.77;;;4.04;83.69
80118;BME280;69424;48.770;-1.564;2024-01-15T01:36:29;101192.95;;;4.03;83.63
80118;BME280;69424;48.770;-1.564;2024-01-15T01:37:04;101196.39;;;4.02;83.67
80118;BME280;69424;48.770;-1.564;2024-01-15T01:37:37;101197.39;;;4.00;83.49
80118;BME280;69424;48.770;-1.564;2024-01-15T01:38:10;101194.66;;;3.98;83.68
80118;BME280;69424;48.770;-1.564;2024-01-15T01:38:43;101196.17;;;3.96;83.66
80118;BME280;69424;48.770;-1.564;2024-01-15T01:39:17;101193.66;;;3.95;83.52
80118;BME280;69424;48.770;-1.564;2024-01-15T01:39:50;101196.12;;;3.96;83.59
80118;BME280;69424;48.770;-1.564;2024-01-15T01:40:23;101195.38;;;3.95;83.51
80118;BME280;69424;48.770;-1.564;2024-01-15T01:40:56;101191.52;;;3.95;83.63
80118;BME280;69424;48.770;-1.564;2024-01-15T01:41:29;101194.98;;;3.94;83.71
80118;BME280;69424;48.770;-1.564;2024-01-15T01:42:02;101191.08;;;3.92;83.59
80118;BME280;69424;48.770;-1.564;2024-01-15T01:42:36;101193.16;;;3.92;83.62
80118;BME280;69424;48.770;-1.564;2024-01-15T01:43:10;101192.27;;;3.92;83.65
80118;BME280;69424;48.770;-1.564;2024-01-15T01:43:43;101190.66;;;3.91;83.76
80118;BME280;69424;48.770;-1.564;2024-01-15T01:44:16;101189.11;;;3.91;83.78
80118;BME280;69424;48.770;-1.564;2024-01-15T01:44:49;101185.94;;;3.91;83.77
80118;BME280;69424;48.770;-1.564;2024-01-15T01:45:22;101180.50;;;3.90;83.84
80118;BME280;69424;48.770;-1.564;2024-01-15T01:45:56;101181.91;;;3.91;83.69
80118;BME280;69424;48.770;-1.564;2024-01-15T01:46:31;101173.54;;;3.91;83.85
80118;BME280;69424;48.770;-1.564;2024-01-15T01:47:05;101175.98;;;3.91;83.74
80118;BME280;69424;48.770;-1.564;2024-01-15T01:47:38;101169.86;;;3.91;83.75
80118;BME280;69424;48.770;-1.564;2024-01-15T01:48:11;101170.54;;;3.91;83.99
80118;BME280;69424;48.770;-1.564;2024-01-15T01:48:45;101168.27;;;3.91;83.84
80118;BME280;69424;48.770;-1.564;2024-01-15T01:49:18;101167.89;;;3.90;84.01
80118;BME280;69424;48.770;-1.564;2024-01-15T01:49:52;101168.41;;;3.90;83.94
80118;BME280;69424;48.770;-1.564;2024-01-15T01:50:25;101167.20;;;3.90;83.95
80118;BME280;69424;48.770;-1.564;2024-01-15T01:51:00;101167.83;;;3.89;84.01
80118;BME280;69424;48.770;-1.564;2024-01-15T01:51:35;101168.38;;;3.89;84.05
80118;BME280;69424;48.770;-1.564;2024-01-15T01:52:10;101167.30;;;3.89;84.23
80118;BME280;69424;48.770;-1.564;2024-01-15T01:52:43;101162.70;;;3.88;84.18
80118;BME280;69424;48.770;-1.564;2024-01-15T01:53:16;101170.23;;;3.88;84.12
80118;BME280;69424;48.770;-1.564;2024-01-15T01:53:50;101171.75;;;3.86;84.07
80118;BME280;69424;48.770;-1.564;2024-01-15T01:54:25;101166.45;;;3.85;84.20
80118;BME280;69424;48.770;-1.564;2024-01-15T01:55:02;101170.81;;;3.85;84.12
80118;BME280;69424;48.770;-1.564;2024-01-15T01:55:36;101174.87;;;3.85;84.09
80118;BME280;69424;48.770;-1.564;2024-01-15T01:56:09;101173.85;;;3.86;84.02
80118;BME280;69424;48.770;-1.564;2024-01-15T01:56:42;101178.77;;;3.87;83.89
80118;BME280;69424;48.770;-1.564;2024-01-15T01:57:15;101174.98;;;3.88;83.90
80118;BME280;69424;48.770;-1.564;2024-01-15T01:57:50;101174.28;;;3.88;83.96
80118;BME280;69424;48.770;-1.564;2024-01-15T01:58:24;101175.67;;;3.88;83.89
80118;BME280;69424;48.770;-1.564;2024-01-15T01:58:58;101176.60;;;3.89;84.01
80118;BME280;69424;48.770;-1.564;2024-01-15T01:59:34;101179.27;;;3.90;84.12
80118;BME280;69424;48.770;-1.564;2024-01-15T02:00:09;101178.23;;;3.91;84.04
80118;BME280;69424;48.770;-1.564;2024-01-15T02:00:46;101177.95;;;3.92;84.17
80118;BME280;69424;48.770;-1.564;2024-01-15T02:01:20;101179.71;;;3.92;84.19
80118;BME280;69424;48.770;-1.564;2024-01-15T02:01:56;101181.70;;;3.94;84.05
80118;BME280;69424;48.770;-1.564;2024-01-15T02:02:31;101183.09;;;3.93;83.95
80118;BME280;69424;48.770;-1.564;2024-01-15T02:03:05;101183.60;;;3.93;84.16
80118;BME280;69424;48.770;-1.564;2024-01-15T02:03:39;101186.70;;;3.92;84.11
80118;BME280;69424;48.770;-1.564;2024-01-15T02:04:14;101189.67;;;3.92;84.06
80118;BME280;69424;48.770;-1.564;2024-01-15T02:04:53;101188.79;;;3.92;84.13
80118;BME280;69424;48.770;-1.564;2024-01-15T02:05:26;101186.30;;;3.91;84.08
80118;BME280;69424;48.770;-1.564;2024-01-15T02:06:00;101188.02;;;3.90;84.10
80118;BME280;69424;48.770;-1.564;2024-01-15T02:06:34;101188.52;;;3.90;84.16
80118;BME280;69424;48.770;-1.564;2024-01-15T02:07:07;101189.75;;;3.90;84.22
80118;BME280;69424;48.770;-1.564;2024-01-15T02:07:40;101187.30;;;3.90;84.27
80118;BME280;69424;48.770;-1.564;2024-01-15T02:08:13;101188.54;;;3.90;84.19
80118;BME280;69424;48.770;-1.564;2024-01-15T02:08:46;101187.10;;;3.89;84.13
80118;BME280;69424;48.770;-1.564;2024-01-15T02:09:19;101184.80;;;3.88;84.19
80118;BME280;69424;48.770;-1.564;2024-01-15T02:09:53;101185.78;;;3.87;84.31
80118;BME280;69424;48.770;-1.564;2024-01-15T02:10:26;101189.64;;;3.87;84.39
80118;BME280;69424;48.770;-1.564;2024-01-15T02:10:59;101188.39;;;3.87;84.41
80118;BME280;69424;48.770;-1.564;2024-01-15T02:11:32;101186.61;;;3.86;84.27
80118;BME280;69424;48.770;-1.564;2024-01-15T02:12:05;101189.70;;;3.85;84.35
80118;BME280;69424;48.770;-1.564;2024-01-15T02:12:39;101188.46;;;3.84;84.44
80118;BME280;69424;48.770;-1.564;2024-01-15T02:13:13;101187.91;;;3.83;84.17
80118;BME280;69424;48.770;-1.564;2024-01-15T02:13:47;101186.71;;;3.84;84.29
80118;BME280;69424;48.770;-1.564;2024-01-15T02:14:20;101186.04;;;3.85;84.30
80118;BME280;69424;48.770;-1.564;2024-01-15T02:14:54;101184.57;;;3.88;84.60
80118;BME280;69424;48.770;-1.564;2024-01-15T02:15:27;101180.57;;;3.88;84.65
80118;BME280;69424;48.770;-1.564;2024-01-15T02:16:00;101188.70;;;3.90;84.72
80118;BME280;69424;48.770;-1.564;2024-01-15T02:16:33;101189.33;;;3.92;84.83
80118;BME280;69424;48.770;-1.564;2024-01-15T02:17:07;101186.22;;;3.93;84.97
80118;BME280;69424;48.770;-1.564;2024-01-15T02:18:05;101186.09;;;3.94;85.05
80118;BME280;69424;48.770;-1.564;2024-01-15T02:18:45;101183.69;;;3.95;85.06
80118;BME280;69424;48.770;-1.564;2024-01-15T02:19:18;101181.77;;;3.96;84.97
80118;BME280;69424;48.770;-1.564;2024-01-15T02:19:52;101184.59;;;3.96;85.08
80118;BME280;69424;48.770;-1.564;2024-01-15T02:20:26;101179.01;;;3.96;85.16
80118;BME280;69424;48.770;-1.564;2024-01-15T02:20:59;101185.13;;;3.96;85.13
80118;BME280;69424;48.770;-1.564;2024-01-15T02:21:32;101181.00;;;3.98;85.02
80118;BME280;69424;48.770;-1.564;2024-01-15T02:22:05;101181.86;;;3.97;85.06
80118;BME280;69424;48.770;-1.564;2024-01-15T02:22:38;101177.84;;;3.98;85.11
80118;BME280;69424;48.770;-1.564;2024-01-15T02:23:44;101179.20;;;3.97;85.03
80118;BME280;69424;48.770;-1.564;2024-01-15T02:24:18;101176.55;;;3.96;84.93
80118;BME280;69424;48.770;-1.564;2024-01-15T02:24:51;101176.72;;;3.96;84.89
80118;BME280;69424;48.770;-1.564;2024-01-15T02:25:24;101174.27;;;3.96;84.92
80118;BME280;69424;48.770;-1.564;2024-01-15T02:25:57;101175.79;;;3.95;84.86
80118;BME280;69424;48.770;-1.564;2024-01-15T02:26:30;101177.14;;;3.94;84.86
80118;BME280;69424;48.770;-1.564;2024-01-15T02:27:03;101177.65;;;3.94;84.88
80118;BME280;69424;48.770;-1.564;2024-01-15T02:27:36;101179.04;;;3.93;84.88
80118;BME280;69424;48.770;-1.564;2024-01-15T02:28:15;101174.27;;;3.93;84.72
80118;BME280;69424;48.770;-1.564;2024-01-15T02:28:50;101181.46;;;3.92;84.63
80118;BME280;69424;48.770;-1.564;2024-01-15T02:29:23;101179.73;;;3.92;84.41
80118;BME280;69424;48.770;-1.564;2024-01-15T02:29:56;101184.98;;;3.93;84.43
80118;BME280;69424;48.770;-1.564;2024-01-15T02:30:30;101187.06;;;3.93;84.46
80118;BME280;69424;48.770;-1.564;2024-01-15T02:31:04;101185.16;;;3.93;84.56
80118;BME280;69424;48.770;-1.564;2024-01-15T02:31:37;101182.38;;;3.93;84.32
80118;BME280;69424;48.770;-1.564;2024-01-15T02:32:11;101184.52;;;3.95;84.47
80118;BME280;69424;48.770;-1.564;2024-01-15T02:32:44;101184.06;;;3.96;84.44
80118;BME280;69424;48.770;-1.564;2024-01-15T02:33:18;101179.36;;;3.96;84.49
80118;BME280;69424;48.770;-1.564;2024-01-15T02:33:51;101179.70;;;3.96;84.43
80118;BME280;69424;48.770;-1.564;2024-01-15T02:34:25;101176.20;;;3.96;84.41
80118;BME280;69424;48.770;-1.564;2024-01-15T02:34:58;101176.02;;;3.96;84.45
80118;BME280;69424;48.770;-1.564;2024-01-15T02:35:31;101177.98;;;3.96;84.28
80118;BME280;69424;48.770;-1.564;2024-01-15T02:36:05;101178.32;;;3.96;84.41
80118;BME280;69424;48.770;-1.564;2024-01-15T02:36:39;101173.26;;;3.97;84.26
80118;BME280;69424;48.770;-1.564;2024-01-15T02:37:12;101174.67;;;3.97;84.41
80118;BME280;69424;48.770;-1.564;2024-01-15T02:37:45;101174.09;;;3.96;84.32
80118;BME280;69424;48.770;-1.564;2024-01-15T02:38:18;101172.99;;;3.95;84.41
80118;BME280;69424;48.770;-1.564;2024-01-15T02:38:51;101171.34;;;3.93;84.34
80118;BME280;69424;48.770;-1.564;2024-01-15T02:39:24;101171.58;;;3.90;84.29
80118;BME280;69424;48.770;-1.564;2024-01-15T02:39:57;101171.51;;;3.89;84.32
80118;BME280;69424;48.770;-1.564;2024-01-15T02:40:30;101176.32;;;3.86;84.28
80118;BME280;69424;48.770;-1.564;2024-01-15T02:41:04;101177.41;;;3.83;84.32
80118;BME280;69424;48.770;-1.564;2024-01-15T02:41:37;101176.33;;;3.82;84.39
80118;BME280;69424;48.770;-1.564;2024-01-15T02:42:10;101175.23;;;3.82;84.44
80118;BME280;69424;48.770;-1.564;2024-01-15T02:42:43;101174.48;;;3.81;84.45
80118;BME280;69424;48.770;-1.564;2024-01-15T02:43:16;101176.80;;;3.82;84.37
80118;BME280;69424;48.770;-1.564;2024-01-15T02:43:52;101179.06;;;3.81;84.45
80118;BME280;69424;48.770;-1.564;2024-01-15T02:44:25;101178.35;;;3.81;84.38
80118;BME280;69424;48.770;-1.564;2024-01-15T02:44:58;101174.80;;;3.80;84.27
80118;BME280;69424;48.770;-1.564;2024-01-15T02:45:31;101178.79;;;3.79;84.17
80118;BME280;69424;48.770;-1.564;2024-01-15T02:46:04;101176.98;;;3.78;84.18
80118;BME280;69424;48.770;-1.564;2024-01-15T02:46:37;101177.48;;;3.77;84.19
80118;BME280;69424;48.770;-1.564;2024-01-15T02:47:10;101178.54;;;3.77;84.20
80118;BME280;69424;48.770;-1.564;2024-01-15T02:47:43;101178.33;;;3.76;84.09
80118;BME280;69424;48.770;-1.564;2024-01-15T02:48:16;101179.40;;;3.77;84.03
80118;BME280;69424;48.770;-1.564;2024-01-15T02:48:50;101180.23;;;3.76;84.01
80118;BME280;69424;48.770;-1.564;2024-01-15T02:49:23;101182.20;;;3.77;84.17
80118;BME280;69424;48.770;-1.564;2024-01-15T02:49:57;101179.38;;;3.77;84.13
80118;BME280;69424;48.770;-1.564;2024-01-15T02:50:30;101182.79;;;3.78;84.08
80118;BME280;69424;48.770;-1.564;2024-01-15T02:51:03;101178.23;;;3.78;84.18
80118;BME280;69424;48.770;-1.564;2024-01-15T02:51:36;101182.15;;;3.80;84.32
80118;BME280;69424;48.770;-1.564;2024-01-15T02:52:10;101180.42;;;3.81;84.25
80118;BME280;69424;48.770;-1.564;2024-01-15T02:52:43;101177.52;;;3.82;84.24
80118;BME280;69424;48.770;-1.564;2024-01-15T02:53:16;101178.09;;;3.83;84.30
80118;BME280;69424;48.770;-1.564;2024-01-15T02:53:50;101174.30;;;3.84;84.27
80118;BME280;69424;48.770;-1.564;2024-01-15T02:54:23;101176.82;;;3.86;84.03
80118;BME280;69424;48.770;-1.564;2024-01-15T02:54:56;101168.46;;;3.87;84.14
80118;BME280;69424;48.770;-1.564;2024-01-15T02:55:29;101171.33;;;3.89;84.15
80118;BME280;69424;48.770;-1.564;2024-01-15T02:56:03;101167.31;;;3.89;84.11
80118;BME280;69424;48.770;-1.564;2024-01-15T02:56:36;101165.05;;;3.89;84.17